Airfield :
LOGIN :

Register | Disclaimer

   EN    FR    IT 

 










Legend :    VFR   Marginal VFR   IFR   Intensive IFR   Very Intensive IFR
Visi :
Ceiling :
>= 8 km
>= 3000ft
5 to 8 km
1000 to 3000 ft
1500m to 5 km
500 to 1000 ft
800 to 1500m
200 to 500 ft
< 800m
< 200 ft
Symbols :   Thunderstorms  Fog  Heavy snow  Heavy precipitations  Wind > 20 kt
SIGMETs :     Misc.  Thunderstorms  Icing  Turbulence  Mountain Waves  Volcanic Ashes







- Airport Elevation : -11 ft
- IATA code : AMS


EHAM - Amsterdam Schiphol

CURRENT METAR :
  • 161155Z 21018KT 9999 FEW010 OVC015 07/04 Q1006 NOSIG

EXPIRED METARs :
  • 161125Z 21018KT 9999 OVC015 07/04 Q1006 NOSIG
  • 161055Z 21019KT 9999 SCT014 OVC016 07/04 Q1007 NOSIG
  • 161025Z 21017KT 9999 FEW008 OVC013 06/05 Q1007 BECMG BKN015
  • 160955Z 21019KT 9000 -DZ FEW008 SCT009 OVC011 06/05 Q1008 TEMPO 5000 DZ BECMG BKN015
  • 160925Z 21019KT 9999 FEW007 SCT009 BKN010 06/05 Q1008 TEMPO 5000 DZ BECMG BKN015

TAF TAF EHAM
Valid from the 16 at 12:00 until the 17 at 18:00 UTC


161105Z 1612/1718 21017G27KT 9999 SCT014 BKN018
PROB30
TEMPO 1612/1618 7000 -RADZ BKN014
BECMG 1618/1620 6000 RA SCT008 BKN012
BECMG 1619/1622 27012KT 9999 NSW SCT030
BECMG 1703/1706 24010KT
BECMG 1707/1709 31017KT
TEMPO 1707/1718 31020G30KT 4000 SHRA SHRAGS BKN012 SCT020CB
PROB30
TEMPO 1711/1718 32025G36KT 2500 SHRASN TSRAGS BKN008 SCT012CB
No reported NOTAMs for that airfield.



MET'MAP, your aeronautical weather chart ! - Copyright ORBIFLY December 2007 - Disclaimer

ORBIFLY MET'MAP TEAM :

Programming & Development : Alexandra Zaïnal
Concept & Development : Baudouin d'Aumeries
Co-Development & Prog : Marc-Olivier Méhu
Technical & hardware support : Manuel Goepfert

Contact : metmap@orbifly.com




SOURCES & CREDITS :

   NOAA